createdAt,value
2019-02-18T00:00:46.353Z,92.20
2019-02-18T00:01:54.448Z,92.60
2019-02-18T00:02:58.620Z,92.00
2019-02-18T00:04:02.825Z,91.90
2019-02-18T00:05:07.419Z,91.30
2019-02-18T00:06:11.703Z,91.30
2019-02-18T00:07:16.003Z,91.10
2019-02-18T00:08:20.270Z,91.50
2019-02-18T00:09:24.519Z,91.20
2019-02-18T00:10:28.762Z,91.60
2019-02-18T00:11:33.038Z,91.70
2019-02-18T00:12:37.331Z,91.70
2019-02-18T00:13:41.815Z,91.60
2019-02-18T00:14:46.149Z,91.00
2019-02-18T00:15:50.475Z,91.30
2019-02-18T00:16:54.781Z,90.90
2019-02-18T00:17:59.124Z,91.50
2019-02-18T00:19:03.311Z,90.70
2019-02-18T00:20:08.056Z,91.20
2019-02-18T00:21:12.401Z,91.50
2019-02-18T00:22:16.604Z,91.40
2019-02-18T00:23:21.070Z,91.40
2019-02-18T00:24:25.370Z,91.80
2019-02-18T00:25:29.555Z,92.20
2019-02-18T00:26:34.041Z,91.50
2019-02-18T00:27:38.355Z,91.60
2019-02-18T00:28:42.629Z,91.50
2019-02-18T00:29:46.925Z,92.10
2019-02-18T00:30:51.160Z,91.50
2019-02-18T00:31:55.337Z,91.60
2019-02-18T00:32:59.673Z,91.10
2019-02-18T00:34:04.301Z,91.00
2019-02-18T00:35:08.719Z,91.00
2019-02-18T00:36:12.995Z,91.30
2019-02-18T00:37:24.164Z,91.50
2019-02-18T00:38:23.096Z,91.50
2019-02-18T00:39:27.385Z,91.50
2019-02-18T00:40:31.721Z,91.10
2019-02-18T00:41:36.052Z,91.00
2019-02-18T00:42:40.239Z,91.00
2019-02-18T00:43:44.400Z,91.50
2019-02-18T00:44:48.623Z,90.60
2019-02-18T00:45:52.808Z,90.40
2019-02-18T00:46:57.109Z,90.50
2019-02-18T00:48:01.320Z,91.10
2019-02-18T00:49:05.677Z,90.50
2019-02-18T00:50:10.304Z,90.50
2019-02-18T00:51:14.529Z,90.80
2019-02-18T00:52:18.867Z,90.20
2019-02-18T00:53:23.169Z,89.90
2019-02-18T00:54:27.445Z,90.20
2019-02-18T00:55:31.643Z,90.50
2019-02-18T00:56:35.969Z,90.20
2019-02-18T00:57:40.315Z,90.30
2019-02-18T00:58:44.596Z,88.90
2019-02-18T00:59:48.883Z,88.40
2019-02-18T01:00:53.069Z,89.10
2019-02-18T01:01:57.383Z,89.70
2019-02-18T01:03:01.699Z,89.40
2019-02-18T01:04:05.994Z,89.50
2019-02-18T01:05:10.459Z,89.40
2019-02-18T01:06:15.098Z,90.20
2019-02-18T01:07:19.338Z,90.00
2019-02-18T01:08:23.485Z,90.30
2019-02-18T01:09:27.784Z,90.10
2019-02-18T01:10:32.095Z,90.00
2019-02-18T01:11:36.441Z,89.90
2019-02-18T01:12:41.084Z,90.10
2019-02-18T01:13:45.507Z,90.00
2019-02-18T01:14:49.653Z,89.20
2019-02-18T01:15:53.858Z,89.90
2019-02-18T01:16:58.123Z,90.00
2019-02-18T01:18:02.353Z,90.70
2019-02-18T01:19:06.495Z,90.30
2019-02-18T01:20:11.471Z,90.00
2019-02-18T01:21:15.665Z,89.30
2019-02-18T01:22:19.963Z,89.40
2019-02-18T01:23:24.255Z,89.40
2019-02-18T01:24:28.568Z,90.50
2019-02-18T01:25:32.713Z,89.80
2019-02-18T01:26:36.897Z,90.10
2019-02-18T01:27:41.384Z,89.90
2019-02-18T01:28:45.549Z,89.20
2019-02-18T01:29:49.697Z,89.30
2019-02-18T01:30:53.899Z,89.70
2019-02-18T01:31:58.028Z,90.20
2019-02-18T01:33:02.359Z,90.00
2019-02-18T01:34:06.641Z,88.60
2019-02-18T01:35:11.387Z,90.10
2019-02-18T01:36:16.047Z,90.50
2019-02-18T01:37:20.373Z,90.70
2019-02-18T01:38:24.678Z,90.40
2019-02-18T01:39:28.885Z,90.60
2019-02-18T01:40:33.042Z,90.20
2019-02-18T01:41:37.290Z,90.50
2019-02-18T01:42:41.631Z,90.20
2019-02-18T01:43:45.775Z,89.70
2019-02-18T01:44:50.066Z,90.30
2019-02-18T01:45:54.367Z,89.90
2019-02-18T01:46:58.655Z,89.20
2019-02-18T01:48:02.848Z,90.30
2019-02-18T01:49:06.997Z,90.00
2019-02-18T01:50:13.578Z,90.20
2019-02-18T01:51:17.794Z,89.40
2019-02-18T01:52:22.075Z,89.80
2019-02-18T01:53:26.269Z,90.30
2019-02-18T01:54:30.583Z,90.50
2019-02-18T01:55:34.769Z,90.30
2019-02-18T01:56:39.057Z,90.70
2019-02-18T01:57:43.484Z,90.00
2019-02-18T01:58:47.645Z,91.00
2019-02-18T01:59:52.000Z,90.30
2019-02-18T02:00:56.559Z,89.40
2019-02-18T02:02:01.319Z,90.00
2019-02-18T02:03:05.567Z,90.60
2019-02-18T02:04:09.737Z,90.00
2019-02-18T02:05:15.556Z,90.40
2019-02-18T02:06:19.861Z,90.10
2019-02-18T02:07:24.014Z,89.10
2019-02-18T02:08:28.222Z,90.20
2019-02-18T02:09:32.537Z,90.20
2019-02-18T02:10:36.999Z,90.50
2019-02-18T02:11:41.268Z,89.20
2019-02-18T02:12:45.557Z,90.20
2019-02-18T02:13:49.797Z,91.20
2019-02-18T02:14:54.148Z,90.60
2019-02-18T02:15:59.293Z,90.60
2019-02-18T02:17:03.605Z,90.10
2019-02-18T02:18:07.893Z,90.60
2019-02-18T02:19:12.053Z,91.00
2019-02-18T02:20:16.314Z,90.70
2019-02-18T02:21:20.865Z,90.80
2019-02-18T02:22:25.114Z,90.40
2019-02-18T02:23:29.321Z,90.30
2019-02-18T02:24:33.649Z,90.80
2019-02-18T02:25:37.987Z,90.60
2019-02-18T02:26:42.263Z,90.30
2019-02-18T02:27:46.625Z,90.40
2019-02-18T02:28:50.816Z,90.60
2019-02-18T02:29:55.058Z,89.80
2019-02-18T02:31:01.018Z,89.10
2019-02-18T02:32:05.330Z,90.10
2019-02-18T02:33:09.619Z,89.80
2019-02-18T02:34:13.943Z,90.30
2019-02-18T02:35:18.137Z,90.10
2019-02-18T02:36:22.313Z,90.50
2019-02-18T02:37:26.627Z,90.60
2019-02-18T02:38:30.929Z,90.00
2019-02-18T02:39:35.173Z,90.80
2019-02-18T02:40:39.470Z,91.20
2019-02-18T02:41:43.758Z,91.30
2019-02-18T02:42:48.002Z,91.50
2019-02-18T02:43:52.212Z,90.90
2019-02-18T02:44:56.606Z,90.50
2019-02-18T02:46:01.239Z,90.40
2019-02-18T02:47:05.504Z,90.10
2019-02-18T02:48:09.869Z,89.20
2019-02-18T02:49:14.049Z,90.10
2019-02-18T02:50:18.358Z,90.20
2019-02-18T02:51:22.639Z,90.30
2019-02-18T02:52:26.874Z,90.20
2019-02-18T02:53:31.226Z,89.70
2019-02-18T02:54:35.421Z,90.20
2019-02-18T02:55:39.770Z,90.20
2019-02-18T02:56:43.902Z,90.20
2019-02-18T02:57:48.256Z,90.00
2019-02-18T02:58:52.435Z,89.60
2019-02-18T02:59:56.761Z,89.10
2019-02-18T03:01:01.001Z,88.50
2019-02-18T03:02:05.159Z,89.20
2019-02-18T03:03:09.302Z,89.00
2019-02-18T03:04:13.553Z,88.90
2019-02-18T03:05:18.184Z,88.30
2019-02-18T03:06:22.411Z,88.60
2019-02-18T03:07:26.740Z,88.80
2019-02-18T03:08:31.002Z,88.70
2019-02-18T03:09:35.369Z,89.30
2019-02-18T03:10:39.661Z,89.60
2019-02-18T03:11:43.957Z,90.40
2019-02-18T03:12:48.126Z,90.40
2019-02-18T03:13:52.821Z,89.50
2019-02-18T03:14:57.147Z,88.50
2019-02-18T03:16:01.426Z,89.60
2019-02-18T03:17:05.638Z,89.50
2019-02-18T03:18:09.931Z,90.00
2019-02-18T03:19:14.119Z,88.50
2019-02-18T03:20:18.423Z,89.40
2019-02-18T03:21:22.574Z,89.00
2019-02-18T03:22:26.827Z,87.90
2019-02-18T03:23:31.151Z,88.40
2019-02-18T03:24:35.427Z,87.00
2019-02-18T03:25:39.656Z,87.50
2019-02-18T03:26:44.259Z,87.50
2019-02-18T03:27:48.988Z,88.00
2019-02-18T03:29:49.560Z,88.20
2019-02-18T03:31:04.031Z,88.40
2019-02-18T03:32:08.274Z,87.80
2019-02-18T03:33:14.137Z,88.80
2019-02-18T03:34:40.807Z,87.60
2019-02-18T03:35:44.998Z,87.80
2019-02-18T03:36:49.554Z,87.40
2019-02-18T03:37:53.798Z,86.60
2019-02-18T03:38:58.065Z,87.10
2019-02-18T03:40:02.755Z,88.90
2019-02-18T03:41:07.280Z,88.80
2019-02-18T03:42:11.686Z,86.90
2019-02-18T03:43:16.296Z,86.90
2019-02-18T03:44:20.558Z,86.90
2019-02-18T03:45:24.753Z,87.20
2019-02-18T03:46:28.898Z,86.80
2019-02-18T03:47:33.186Z,88.40
2019-02-18T03:48:37.396Z,86.80
2019-02-18T03:49:41.596Z,87.00
2019-02-18T03:50:45.927Z,86.90
2019-02-18T03:51:50.521Z,86.10
2019-02-18T03:52:54.704Z,85.70
2019-02-18T03:53:58.952Z,86.10
2019-02-18T03:55:03.369Z,85.20
2019-02-18T03:56:07.570Z,85.10
2019-02-18T03:57:11.889Z,86.40
2019-02-18T03:58:16.183Z,86.40
2019-02-18T03:59:20.407Z,85.70
2019-02-18T04:00:24.735Z,84.20
2019-02-18T04:01:29.056Z,84.80
2019-02-18T04:02:33.242Z,85.30
2019-02-18T04:03:37.413Z,84.70
2019-02-18T04:04:41.725Z,85.40
2019-02-18T04:05:46.063Z,85.70
2019-02-18T04:06:50.301Z,85.20
2019-02-18T04:07:54.639Z,85.60
2019-02-18T04:08:58.768Z,86.30
2019-02-18T04:10:03.048Z,84.70
2019-02-18T04:11:07.221Z,84.20
2019-02-18T04:12:11.597Z,84.40
2019-02-18T04:13:15.968Z,83.90
2019-02-18T04:14:20.251Z,84.30
2019-02-18T04:15:24.611Z,85.60
2019-02-18T04:16:28.878Z,84.10
2019-02-18T04:17:33.155Z,85.50
2019-02-18T04:18:37.451Z,84.60
2019-02-18T04:19:41.657Z,84.30
2019-02-18T04:20:45.851Z,84.50
2019-02-18T04:21:50.169Z,84.80
2019-02-18T04:22:54.476Z,84.80
2019-02-18T04:23:58.789Z,85.10
2019-02-18T04:25:03.056Z,84.70
2019-02-18T04:26:07.280Z,85.20
2019-02-18T04:27:11.481Z,84.30
2019-02-18T04:28:15.765Z,84.40
2019-02-18T04:29:20.088Z,83.90
2019-02-18T04:30:24.285Z,84.30
2019-02-18T04:31:28.542Z,84.50
2019-02-18T04:32:32.723Z,84.20
2019-02-18T04:33:37.142Z,83.60
2019-02-18T04:34:41.317Z,83.50
2019-02-18T04:35:45.689Z,83.90
2019-02-18T04:36:49.894Z,84.70
2019-02-18T04:37:54.083Z,84.80
2019-02-18T04:38:58.288Z,83.80
2019-02-18T04:40:02.563Z,82.70
2019-02-18T04:41:06.857Z,83.00
2019-02-18T04:42:11.201Z,83.70
2019-02-18T04:43:15.535Z,83.10
2019-02-18T04:44:19.783Z,83.10
2019-02-18T04:45:23.937Z,83.50
2019-02-18T04:46:28.224Z,82.30
2019-02-18T04:47:32.797Z,83.60
2019-02-18T04:48:37.057Z,83.70
2019-02-18T04:49:41.409Z,82.90
2019-02-18T04:50:46.134Z,83.30
2019-02-18T04:51:50.334Z,81.40
2019-02-18T04:52:54.675Z,81.40
2019-02-18T04:53:58.981Z,83.00
2019-02-18T04:55:03.171Z,82.40
2019-02-18T04:56:07.362Z,81.20
2019-02-18T04:57:11.619Z,82.60
2019-02-18T04:58:15.976Z,81.60
2019-02-18T04:59:20.250Z,82.10
2019-02-18T05:00:24.407Z,83.50
2019-02-18T05:01:28.560Z,84.50
2019-02-18T05:02:32.843Z,83.10
2019-02-18T05:03:37.068Z,81.10
2019-02-18T05:04:41.245Z,81.00
2019-02-18T05:05:45.539Z,82.20
2019-02-18T05:06:49.737Z,81.40
2019-02-18T05:07:54.046Z,82.50
2019-02-18T05:09:05.377Z,82.20
2019-02-18T05:10:04.362Z,80.80
2019-02-18T05:11:08.543Z,81.20
2019-02-18T05:12:12.755Z,81.40
2019-02-18T05:13:16.946Z,81.90
2019-02-18T05:14:21.099Z,82.00
2019-02-18T05:15:25.455Z,81.30
2019-02-18T05:16:29.725Z,82.70
2019-02-18T05:17:34.017Z,84.10
2019-02-18T05:18:38.729Z,82.90
2019-02-18T05:19:42.919Z,83.30
2019-02-18T05:20:47.213Z,82.20
2019-02-18T05:21:51.562Z,82.10
2019-02-18T05:22:55.742Z,83.30
2019-02-18T05:23:59.876Z,82.50
2019-02-18T05:25:04.147Z,81.30
2019-02-18T05:26:08.402Z,81.60
2019-02-18T05:27:12.674Z,82.40
2019-02-18T05:28:16.979Z,81.80
2019-02-18T05:29:21.292Z,83.50
2019-02-18T05:30:25.601Z,83.00
2019-02-18T05:31:29.930Z,82.60
2019-02-18T05:32:34.196Z,83.90
2019-02-18T05:33:38.533Z,83.70
2019-02-18T05:34:42.693Z,83.30
2019-02-18T05:35:46.994Z,83.00
2019-02-18T05:36:51.286Z,83.50
2019-02-18T05:37:55.489Z,84.10
2019-02-18T05:38:59.970Z,83.40
2019-02-18T05:40:04.507Z,83.10
2019-02-18T05:41:08.673Z,83.40
2019-02-18T05:42:12.973Z,82.20
2019-02-18T05:43:17.324Z,82.10
2019-02-18T05:44:21.623Z,82.60
2019-02-18T05:45:25.818Z,82.50
2019-02-18T05:46:30.698Z,82.10
2019-02-18T05:47:35.038Z,82.30
2019-02-18T05:48:39.497Z,83.60
2019-02-18T05:49:43.839Z,83.70
2019-02-18T05:50:48.135Z,84.40
2019-02-18T05:51:52.443Z,82.80
2019-02-18T05:52:56.638Z,82.20
2019-02-18T05:54:00.902Z,81.80
2019-02-18T05:55:05.425Z,82.30
2019-02-18T05:56:09.605Z,83.20
2019-02-18T05:57:13.911Z,82.80
2019-02-18T05:58:18.162Z,81.80
2019-02-18T05:59:22.402Z,82.90
2019-02-18T06:00:26.635Z,82.50
2019-02-18T06:01:30.869Z,82.80
2019-02-18T06:02:35.126Z,83.60
2019-02-18T06:03:39.409Z,83.50
2019-02-18T06:04:43.693Z,83.10
2019-02-18T06:05:48.154Z,84.20
2019-02-18T06:06:52.518Z,83.70
2019-02-18T06:07:56.831Z,84.10
2019-02-18T06:09:01.063Z,82.40
2019-02-18T06:10:06.513Z,82.50
2019-02-18T06:11:10.876Z,83.10
2019-02-18T06:12:15.009Z,83.30
2019-02-18T06:13:19.254Z,82.90
2019-02-18T06:14:23.563Z,82.70
2019-02-18T06:15:27.855Z,82.90
2019-02-18T06:16:32.189Z,82.50
2019-02-18T06:17:36.403Z,83.20
2019-02-18T06:18:40.705Z,83.60
2019-02-18T06:19:44.887Z,83.30
2019-02-18T06:20:49.123Z,85.30
2019-02-18T06:21:53.369Z,83.80
2019-02-18T06:22:57.633Z,84.50
2019-02-18T06:24:01.876Z,84.00
2019-02-18T06:25:06.297Z,83.20
2019-02-18T06:26:10.644Z,82.40
2019-02-18T06:27:14.914Z,82.70
2019-02-18T06:28:19.141Z,83.10
2019-02-18T06:29:23.637Z,82.20
2019-02-18T06:30:27.943Z,82.60
2019-02-18T06:31:32.264Z,83.00
2019-02-18T06:32:36.512Z,82.50
2019-02-18T06:33:40.849Z,82.70
2019-02-18T06:34:45.026Z,81.70
2019-02-18T06:35:49.332Z,81.60
2019-02-18T06:36:53.577Z,82.30
2019-02-18T06:37:57.837Z,82.30
2019-02-18T06:39:01.995Z,82.50
2019-02-18T06:40:06.926Z,83.20
2019-02-18T06:41:11.211Z,83.70
2019-02-18T06:42:15.464Z,83.40
2019-02-18T06:43:19.753Z,84.20
2019-02-18T06:44:33.296Z,84.40
2019-02-18T06:45:43.000Z,84.60
2019-02-18T06:46:57.656Z,84.40
2019-02-18T06:48:04.088Z,84.30
2019-02-18T06:49:16.674Z,83.70
2019-02-18T06:50:20.826Z,83.80
2019-02-18T06:51:24.959Z,81.20
2019-02-18T06:52:29.238Z,81.80
2019-02-18T06:53:33.481Z,82.60
2019-02-18T06:54:37.738Z,83.60
2019-02-18T06:55:42.015Z,82.00
2019-02-18T06:56:59.264Z,82.10
2019-02-18T06:58:18.765Z,83.10
2019-02-18T06:59:30.023Z,82.10
2019-02-18T07:00:49.243Z,82.40
2019-02-18T07:01:58.567Z,82.70
2019-02-18T07:03:07.998Z,84.00
2019-02-18T07:04:40.363Z,85.10
2019-02-18T07:06:02.193Z,86.50
2019-02-18T07:07:24.083Z,87.10
2019-02-18T07:09:02.667Z,86.00
2019-02-18T07:10:21.726Z,86.30
2019-02-18T07:11:30.453Z,87.30
2019-02-18T07:12:53.655Z,87.60
2019-02-18T07:13:57.993Z,87.00
2019-02-18T07:15:02.220Z,86.00
2019-02-18T07:16:06.497Z,86.60
2019-02-18T07:17:10.833Z,85.30
2019-02-18T07:18:15.066Z,85.50
2019-02-18T07:19:19.327Z,85.60
2019-02-18T07:20:23.527Z,86.50
2019-02-18T07:21:27.697Z,88.00
2019-02-18T07:22:31.914Z,88.60
2019-02-18T07:23:36.131Z,88.30
2019-02-18T07:24:40.315Z,88.20
2019-02-18T07:25:44.654Z,88.40
2019-02-18T07:26:49.001Z,88.20
2019-02-18T07:27:53.303Z,88.40
2019-02-18T07:28:57.561Z,89.20
2019-02-18T07:30:01.857Z,89.10
2019-02-18T07:31:06.065Z,89.50
2019-02-18T07:32:10.417Z,89.50
2019-02-18T07:33:14.559Z,89.20
2019-02-18T07:34:18.945Z,89.30
2019-02-18T07:35:23.167Z,89.20
2019-02-18T07:36:27.471Z,90.00
2019-02-18T07:37:31.792Z,89.50
2019-02-18T07:38:35.923Z,89.90
2019-02-18T07:39:40.227Z,90.50
2019-02-18T07:40:44.401Z,90.60
2019-02-18T07:41:48.561Z,90.50
2019-02-18T07:42:52.901Z,90.70
2019-02-18T07:43:57.097Z,90.80
2019-02-18T07:45:01.391Z,90.60
2019-02-18T07:46:05.729Z,90.50
2019-02-18T07:47:10.068Z,90.70
2019-02-18T07:48:14.358Z,90.70
2019-02-18T07:49:18.573Z,90.80
2019-02-18T07:50:22.872Z,90.50
2019-02-18T07:51:27.185Z,90.40
2019-02-18T07:52:31.501Z,91.00
2019-02-18T07:53:35.712Z,91.20
2019-02-18T07:54:40.003Z,91.10
2019-02-18T07:55:44.216Z,91.60
2019-02-18T07:56:48.477Z,91.80
2019-02-18T07:57:52.714Z,91.80
2019-02-18T07:58:56.922Z,91.50
2019-02-18T08:00:01.501Z,91.30
2019-02-18T08:01:05.662Z,91.70
2019-02-18T08:02:09.839Z,91.50
2019-02-18T08:03:14.191Z,91.70
2019-02-18T08:04:18.355Z,91.90
2019-02-18T08:05:22.651Z,92.80
2019-02-18T08:06:27.367Z,92.10
2019-02-18T08:07:31.549Z,92.00
2019-02-18T08:08:35.885Z,92.30
2019-02-18T08:09:40.090Z,92.60
2019-02-18T08:10:44.277Z,92.50
2019-02-18T08:11:48.655Z,93.00
2019-02-18T08:12:52.938Z,92.80
2019-02-18T08:13:57.626Z,93.20
2019-02-18T08:15:01.885Z,92.90
2019-02-18T08:16:06.180Z,93.10
2019-02-18T08:17:10.506Z,93.30
2019-02-18T08:18:14.728Z,93.40
2019-02-18T08:19:19.018Z,93.90
2019-02-18T08:20:23.174Z,93.50
2019-02-18T08:21:27.292Z,93.60
2019-02-18T08:22:31.563Z,93.60
2019-02-18T08:23:35.723Z,94.10
2019-02-18T08:24:39.977Z,94.00
2019-02-18T08:25:44.281Z,94.40
2019-02-18T08:26:48.550Z,94.00
2019-02-18T08:27:52.719Z,94.00
2019-02-18T08:28:56.994Z,94.50
2019-02-18T08:30:01.239Z,94.50
2019-02-18T08:31:05.437Z,94.40
2019-02-18T08:32:10.845Z,94.50
2019-02-18T08:33:15.351Z,94.80
2019-02-18T08:34:19.647Z,94.60
2019-02-18T08:35:23.894Z,94.70
2019-02-18T08:36:28.163Z,94.90
2019-02-18T08:37:32.386Z,95.00
2019-02-18T08:38:36.595Z,95.00
2019-02-18T08:39:40.767Z,95.10
2019-02-18T08:40:45.071Z,95.20
2019-02-18T08:41:49.287Z,94.90
2019-02-18T08:42:53.471Z,94.70
2019-02-18T08:43:57.796Z,94.70
2019-02-18T08:45:01.965Z,94.90
2019-02-18T08:46:06.193Z,94.90
2019-02-18T08:47:10.585Z,95.10
2019-02-18T08:48:14.920Z,94.60
2019-02-18T08:49:19.191Z,94.00
2019-02-18T08:50:23.463Z,94.80
2019-02-18T08:51:27.783Z,94.90
2019-02-18T08:52:31.981Z,95.30
2019-02-18T08:53:36.259Z,95.50
2019-02-18T08:54:40.519Z,95.70
2019-02-18T08:55:44.711Z,95.20
2019-02-18T08:56:49.047Z,94.60
2019-02-18T08:57:53.402Z,94.40
2019-02-18T08:58:57.588Z,94.40
2019-02-18T09:00:02.108Z,93.90
2019-02-18T09:01:06.373Z,94.50
2019-02-18T09:02:10.577Z,94.20
2019-02-18T09:03:14.795Z,94.00
2019-02-18T09:04:19.100Z,94.00
2019-02-18T09:05:23.502Z,93.70
2019-02-18T09:06:27.762Z,93.70
2019-02-18T09:07:32.038Z,93.60
2019-02-18T09:08:36.247Z,93.80
2019-02-18T09:09:40.537Z,94.50
2019-02-18T09:10:44.979Z,94.80
2019-02-18T09:11:49.197Z,95.20
2019-02-18T09:12:53.427Z,94.70
2019-02-18T09:13:57.631Z,94.60
2019-02-18T09:15:01.788Z,94.40
2019-02-18T09:16:05.950Z,94.30
2019-02-18T09:17:10.255Z,94.70
2019-02-18T09:18:14.564Z,94.50
2019-02-18T09:19:18.780Z,94.90
2019-02-18T09:20:25.463Z,95.00
2019-02-18T09:21:30.755Z,95.50
2019-02-18T09:22:48.334Z,95.30
2019-02-18T09:24:06.736Z,94.90
2019-02-18T09:25:20.486Z,95.30
2019-02-18T09:26:25.133Z,96.10
2019-02-18T09:27:29.469Z,95.20
2019-02-18T09:28:33.647Z,94.70
2019-02-18T09:29:37.801Z,94.70
2019-02-18T09:30:43.609Z,94.70
2019-02-18T09:31:47.773Z,94.70
2019-02-18T09:32:51.955Z,94.80
2019-02-18T09:33:56.140Z,94.90
2019-02-18T09:35:02.005Z,95.00
2019-02-18T09:36:06.264Z,95.50
2019-02-18T09:37:10.528Z,95.60
2019-02-18T09:38:24.493Z,95.70
2019-02-18T09:39:30.549Z,94.90
2019-02-18T09:40:27.648Z,94.60
2019-02-18T09:41:31.921Z,94.80
2019-02-18T09:42:36.151Z,94.80
2019-02-18T09:43:40.348Z,95.10
2019-02-18T09:44:44.747Z,94.70
2019-02-18T09:45:49.111Z,94.70
2019-02-18T09:46:53.411Z,94.90
2019-02-18T09:47:57.584Z,95.30
2019-02-18T09:49:01.746Z,94.70
2019-02-18T09:50:06.073Z,94.40
2019-02-18T09:51:10.319Z,94.70
2019-02-18T09:52:14.504Z,93.50
2019-02-18T09:53:18.714Z,93.60
2019-02-18T09:54:23.039Z,93.20
2019-02-18T09:55:27.309Z,93.50
2019-02-18T09:56:31.606Z,93.80
2019-02-18T09:57:35.926Z,93.40
2019-02-18T09:58:40.123Z,92.90
2019-02-18T09:59:44.417Z,93.00
2019-02-18T10:00:48.782Z,93.10
2019-02-18T10:01:53.133Z,92.60
2019-02-18T10:02:57.405Z,92.90
2019-02-18T10:04:01.576Z,92.90
2019-02-18T10:05:06.110Z,93.50
2019-02-18T10:06:10.508Z,93.10
2019-02-18T10:07:14.722Z,93.30
2019-02-18T10:08:18.935Z,92.90
2019-02-18T10:09:23.415Z,93.10
2019-02-18T10:10:27.604Z,93.60
2019-02-18T10:11:31.869Z,93.50
2019-02-18T10:12:36.138Z,93.30
2019-02-18T10:13:40.416Z,92.50
2019-02-18T10:14:44.714Z,92.30
2019-02-18T10:15:48.883Z,92.90
2019-02-18T10:16:53.212Z,93.10
2019-02-18T10:17:57.481Z,92.30
2019-02-18T10:19:01.757Z,92.50
2019-02-18T10:20:06.607Z,92.40
2019-02-18T10:21:10.889Z,92.00
2019-02-18T10:22:15.158Z,92.30
2019-02-18T10:23:19.353Z,91.90
2019-02-18T10:24:23.691Z,92.00
2019-02-18T10:25:28.027Z,92.10
2019-02-18T10:26:32.311Z,92.40
2019-02-18T10:27:36.645Z,92.00
2019-02-18T10:28:40.918Z,91.30
2019-02-18T10:29:45.257Z,90.40
2019-02-18T10:30:49.481Z,90.00
2019-02-18T10:31:53.753Z,90.60
2019-02-18T10:32:58.174Z,90.90
2019-02-18T10:34:02.734Z,89.90
2019-02-18T10:35:08.793Z,90.30
2019-02-18T10:36:12.986Z,90.50
2019-02-18T10:37:17.295Z,91.40
2019-02-18T10:38:21.643Z,90.00
2019-02-18T10:39:25.797Z,89.60
2019-02-18T10:40:30.115Z,89.50
2019-02-18T10:41:34.386Z,90.50
2019-02-18T10:42:38.631Z,91.40
2019-02-18T10:43:42.833Z,91.60
2019-02-18T10:44:46.973Z,89.70
2019-02-18T10:45:51.699Z,89.80
2019-02-18T10:46:55.912Z,89.70
2019-02-18T10:48:00.103Z,89.40
2019-02-18T10:49:04.435Z,90.40
2019-02-18T10:50:09.739Z,88.70
2019-02-18T10:51:14.027Z,88.20
2019-02-18T10:52:18.206Z,88.70
2019-02-18T10:53:22.346Z,87.20
2019-02-18T10:54:26.770Z,86.50
2019-02-18T10:55:31.303Z,86.40
2019-02-18T10:56:35.627Z,87.10
2019-02-18T10:57:40.105Z,85.80
2019-02-18T10:58:44.285Z,85.10
2019-02-18T10:59:48.597Z,82.70
2019-02-18T11:00:52.793Z,82.50
2019-02-18T11:01:57.299Z,82.60
2019-02-18T11:03:01.648Z,84.00
2019-02-18T11:04:05.822Z,83.60
2019-02-18T11:05:10.057Z,84.30
2019-02-18T11:06:14.350Z,85.00
2019-02-18T11:07:18.565Z,85.60
2019-02-18T11:08:22.916Z,85.90
2019-02-18T11:09:27.277Z,85.80
2019-02-18T11:10:31.485Z,85.90
2019-02-18T11:11:35.655Z,85.20
2019-02-18T11:12:39.882Z,85.50
2019-02-18T11:13:44.195Z,85.40
2019-02-18T11:14:48.587Z,85.80
2019-02-18T11:15:52.867Z,85.90
2019-02-18T11:16:57.075Z,85.80
2019-02-18T11:18:01.463Z,85.90
2019-02-18T11:19:05.691Z,85.80
2019-02-18T11:20:10.568Z,86.20
2019-02-18T11:21:14.767Z,86.60
2019-02-18T11:22:18.909Z,85.60
2019-02-18T11:23:23.528Z,85.20
2019-02-18T11:24:27.684Z,85.60
2019-02-18T11:25:32.383Z,86.50
2019-02-18T11:26:37.141Z,86.10
2019-02-18T11:27:41.428Z,85.90
2019-02-18T11:28:45.604Z,85.90
2019-02-18T11:29:49.897Z,86.20
2019-02-18T11:30:54.069Z,86.30
2019-02-18T11:31:58.327Z,87.00
2019-02-18T11:33:02.545Z,87.40
2019-02-18T11:34:06.729Z,87.10
2019-02-18T11:35:11.240Z,88.00
2019-02-18T11:36:15.621Z,88.90
2019-02-18T11:37:19.917Z,88.80
2019-02-18T11:38:24.113Z,87.10
2019-02-18T11:39:28.417Z,87.60
2019-02-18T11:40:32.798Z,88.00
2019-02-18T11:41:37.029Z,88.50
2019-02-18T11:42:41.317Z,89.20
2019-02-18T11:43:46.225Z,90.00
2019-02-18T11:44:50.375Z,90.40
2019-02-18T11:45:54.523Z,90.10
2019-02-18T11:46:58.741Z,90.30
2019-02-18T11:48:02.922Z,90.60
2019-02-18T11:49:07.330Z,90.80
2019-02-18T11:50:12.128Z,91.00
2019-02-18T11:51:16.299Z,91.00
2019-02-18T11:52:20.572Z,89.40
2019-02-18T11:53:24.808Z,89.20
2019-02-18T11:54:29.037Z,88.30
2019-02-18T11:55:33.432Z,88.70
2019-02-18T11:56:38.514Z,84.90
2019-02-18T11:57:42.649Z,86.00
2019-02-18T11:58:46.829Z,86.20
2019-02-18T11:59:50.999Z,86.80
2019-02-18T12:00:55.429Z,87.60
2019-02-18T12:02:00.003Z,87.90
2019-02-18T12:03:11.541Z,87.70
2019-02-18T12:04:10.282Z,87.60
2019-02-18T12:05:14.936Z,88.00
2019-02-18T12:06:19.267Z,88.10
2019-02-18T12:07:23.553Z,88.70
2019-02-18T12:08:27.905Z,89.70
2019-02-18T12:09:32.224Z,89.20
2019-02-18T12:10:36.497Z,89.10
2019-02-18T12:11:40.912Z,87.70
2019-02-18T12:12:45.483Z,89.20
2019-02-18T12:13:49.698Z,89.00
2019-02-18T12:14:54.109Z,89.30
2019-02-18T12:15:58.357Z,89.90
2019-02-18T12:17:03.101Z,90.10
2019-02-18T12:18:07.441Z,90.60
2019-02-18T12:19:11.631Z,90.90
2019-02-18T12:20:15.923Z,90.90
2019-02-18T12:21:20.207Z,91.30
2019-02-18T12:22:24.493Z,91.10
2019-02-18T12:23:28.744Z,91.20
2019-02-18T12:24:33.008Z,91.60
2019-02-18T12:25:37.211Z,91.90
2019-02-18T12:26:41.619Z,92.40
2019-02-18T12:27:45.935Z,92.00
2019-02-18T12:28:50.177Z,91.90
2019-02-18T12:29:54.559Z,91.70
2019-02-18T12:30:58.855Z,91.80
2019-02-18T12:32:03.479Z,91.80
2019-02-18T12:33:07.886Z,91.90
2019-02-18T12:34:12.140Z,91.90
2019-02-18T12:35:16.374Z,92.00
2019-02-18T12:36:20.600Z,91.90
2019-02-18T12:37:24.840Z,91.80
2019-02-18T12:38:29.023Z,91.50
2019-02-18T12:39:33.245Z,90.30
2019-02-18T12:40:37.523Z,88.00
2019-02-18T12:41:48.783Z,88.80
2019-02-18T12:42:47.994Z,88.70
2019-02-18T12:43:52.316Z,87.20
2019-02-18T12:44:56.579Z,87.10
2019-02-18T12:46:00.861Z,88.10
2019-02-18T12:47:05.891Z,84.50
2019-02-18T12:48:10.517Z,86.50
2019-02-18T12:49:15.141Z,85.40
2019-02-18T12:50:19.911Z,84.60
2019-02-18T12:51:24.088Z,84.20
2019-02-18T12:52:28.270Z,85.30
2019-02-18T12:53:32.857Z,84.00
2019-02-18T12:54:37.088Z,84.20
2019-02-18T12:55:41.395Z,83.90
2019-02-18T12:56:45.965Z,81.20
2019-02-18T12:57:50.219Z,81.90
2019-02-18T12:58:54.932Z,82.20
2019-02-18T12:59:59.603Z,83.30
2019-02-18T13:01:05.115Z,83.80
2019-02-18T13:02:09.599Z,84.60
2019-02-18T13:03:13.926Z,85.20
2019-02-18T13:04:18.597Z,85.80
2019-02-18T13:05:22.841Z,85.70
2019-02-18T13:06:27.126Z,85.90
2019-02-18T13:07:31.816Z,85.50
2019-02-18T13:08:36.405Z,84.80
2019-02-18T13:09:40.769Z,84.80
2019-02-18T13:10:45.033Z,85.00
2019-02-18T13:11:58.519Z,86.00
2019-02-18T13:12:55.233Z,86.20
2019-02-18T13:13:59.523Z,87.10
2019-02-18T13:15:04.081Z,87.10
2019-02-18T13:16:08.303Z,87.60
2019-02-18T13:17:12.679Z,89.20
2019-02-18T13:18:17.396Z,88.40
2019-02-18T13:19:21.755Z,89.30
2019-02-18T13:20:26.058Z,88.90
2019-02-18T13:21:30.285Z,88.70
2019-02-18T13:22:34.659Z,88.40
2019-02-18T13:23:38.984Z,87.80
2019-02-18T13:24:43.437Z,87.80
2019-02-18T13:25:47.945Z,86.60
2019-02-18T13:26:52.215Z,86.20
2019-02-18T13:27:56.578Z,85.80
2019-02-18T13:29:00.978Z,86.20
2019-02-18T13:30:09.167Z,84.70
2019-02-18T13:31:13.457Z,85.00
2019-02-18T13:32:17.885Z,83.90
2019-02-18T13:33:22.123Z,84.00
2019-02-18T13:34:26.823Z,84.20
2019-02-18T13:35:31.340Z,84.50
2019-02-18T13:36:35.489Z,85.10
2019-02-18T13:37:39.812Z,85.30
2019-02-18T13:38:44.202Z,85.70
2019-02-18T13:39:48.438Z,85.00
2019-02-18T13:40:52.808Z,83.70
2019-02-18T13:41:57.078Z,83.70
2019-02-18T13:43:01.396Z,84.00
2019-02-18T13:44:05.756Z,84.00
2019-02-18T13:45:10.293Z,83.80
2019-02-18T13:46:14.522Z,84.70
2019-02-18T13:47:18.906Z,84.80
2019-02-18T13:48:23.222Z,84.80
2019-02-18T13:49:27.483Z,84.20
2019-02-18T13:50:32.149Z,84.20
2019-02-18T13:51:36.438Z,84.20
2019-02-18T13:52:40.763Z,84.10
2019-02-18T13:53:45.057Z,84.30
2019-02-18T13:54:49.410Z,84.90